createdAt,value
2022-08-05T00:00:16.211Z,19.91
2022-08-05T00:01:20.634Z,19.90
2022-08-05T00:02:15.778Z,19.88
2022-08-05T00:03:15.452Z,19.86
2022-08-05T00:04:14.673Z,19.87
2022-08-05T00:06:02.475Z,19.87
2022-08-05T00:06:27.765Z,19.90
2022-08-05T00:07:59.663Z,19.88
2022-08-05T00:08:32.498Z,19.84
2022-08-05T00:09:16.011Z,19.83
2022-08-05T00:10:14.612Z,19.79
2022-08-05T00:11:20.795Z,19.78
2022-08-05T00:12:15.707Z,19.78
2022-08-05T00:13:18.593Z,19.78
2022-08-05T00:14:17.129Z,19.73
2022-08-05T00:15:57.674Z,19.70
2022-08-05T00:16:15.599Z,19.69
2022-08-05T00:17:18.674Z,19.66
2022-08-05T00:18:22.510Z,19.65
2022-08-05T00:19:15.458Z,19.65
2022-08-05T00:20:14.424Z,19.68
2022-08-05T00:21:15.428Z,19.68
2022-08-05T00:22:14.503Z,19.66
2022-08-05T00:23:14.383Z,19.65
2022-08-05T00:24:18.986Z,19.65
2022-08-05T00:25:15.374Z,19.61
2022-08-05T00:26:14.383Z,19.61
2022-08-05T00:27:16.695Z,19.57
2022-08-05T00:28:15.355Z,19.58
2022-08-05T00:29:15.369Z,19.55
2022-08-05T00:30:14.287Z,19.54
2022-08-05T00:31:15.410Z,19.54
2022-08-05T00:32:15.682Z,19.54
2022-08-05T00:34:41.937Z,19.57
2022-08-05T00:34:56.561Z,19.57
2022-08-05T00:35:15.399Z,19.60
2022-08-05T00:37:09.102Z,19.65
2022-08-05T00:37:15.223Z,19.68
2022-08-05T00:38:14.195Z,19.70
2022-08-05T00:39:14.433Z,19.69
2022-08-05T00:40:14.224Z,19.70
2022-08-05T00:41:14.199Z,19.69
2022-08-05T00:42:32.270Z,19.66
2022-08-05T00:43:15.261Z,19.63
2022-08-05T00:44:14.270Z,19.66
2022-08-05T00:45:14.115Z,19.65
2022-08-05T00:46:14.111Z,19.63
2022-08-05T00:47:14.091Z,19.65
2022-08-05T00:48:14.141Z,19.68
2022-08-05T00:49:14.118Z,19.68
2022-08-05T00:50:14.098Z,19.70
2022-08-05T00:51:50.306Z,19.68
2022-08-05T00:52:15.023Z,19.69
2022-08-05T00:54:00.900Z,19.69
2022-08-05T00:54:14.970Z,19.69
2022-08-05T00:55:14.037Z,19.68
2022-08-05T00:56:14.043Z,19.68
2022-08-05T00:57:13.963Z,19.69
2022-08-05T00:58:14.034Z,19.68
2022-08-05T00:59:13.912Z,19.69
2022-08-05T01:00:13.912Z,19.72
2022-08-05T01:01:13.966Z,19.70
2022-08-05T01:02:13.864Z,19.72
2022-08-05T01:03:22.400Z,19.72
2022-08-05T01:04:15.866Z,19.69
2022-08-05T01:05:13.827Z,19.69
2022-08-05T01:06:15.444Z,19.69
2022-08-05T01:07:13.988Z,19.66
2022-08-05T01:08:41.839Z,19.68
2022-08-05T01:09:14.865Z,19.66
2022-08-05T01:10:13.807Z,19.65
2022-08-05T01:11:13.870Z,19.61
2022-08-05T01:12:18.797Z,19.61
2022-08-05T01:13:19.327Z,19.61
2022-08-05T01:14:15.602Z,19.60
2022-08-05T01:15:35.605Z,19.58
2022-08-05T01:16:14.851Z,19.60
2022-08-05T01:17:14.700Z,19.58
2022-08-05T01:18:14.318Z,19.57
2022-08-05T01:19:14.236Z,19.55
2022-08-05T01:20:13.739Z,19.50
2022-08-05T01:21:13.648Z,19.48
2022-08-05T01:22:18.638Z,19.47
2022-08-05T01:23:20.070Z,19.46
2022-08-05T01:24:14.643Z,19.43
2022-08-05T01:25:13.751Z,19.42
2022-08-05T01:26:13.592Z,19.40
2022-08-05T01:27:19.424Z,19.40
2022-08-05T01:28:14.545Z,19.36
2022-08-05T01:29:13.507Z,19.35
2022-08-05T01:30:18.683Z,19.33
2022-08-05T01:31:14.545Z,19.31
2022-08-05T01:32:18.380Z,19.31
2022-08-05T01:33:14.485Z,19.25
2022-08-05T01:34:14.485Z,19.25
2022-08-05T01:35:13.453Z,19.24
2022-08-05T01:36:16.087Z,19.23
2022-08-05T01:37:24.645Z,19.23
2022-08-05T01:38:24.656Z,19.20
2022-08-05T01:39:15.601Z,19.20
2022-08-05T01:40:14.364Z,19.17
2022-08-05T01:41:13.385Z,19.14
2022-08-05T01:42:13.725Z,19.10
2022-08-05T01:43:22.465Z,19.11
2022-08-05T01:44:15.352Z,19.06
2022-08-05T01:45:13.339Z,19.05
2022-08-05T01:46:16.493Z,19.01
2022-08-05T01:47:14.307Z,19.01
2022-08-05T01:48:13.273Z,19.01
2022-08-05T01:49:23.933Z,18.99
2022-08-05T01:50:15.784Z,18.98
2022-08-05T01:51:13.292Z,18.98
2022-08-05T01:52:17.978Z,18.97
2022-08-05T01:53:14.190Z,18.97
2022-08-05T01:54:14.259Z,18.97
2022-08-05T01:55:13.160Z,18.97
2022-08-05T01:56:13.148Z,18.95
2022-08-05T01:58:09.366Z,18.95
2022-08-05T01:58:15.587Z,18.97
2022-08-05T01:59:13.345Z,18.97
2022-08-05T02:00:14.109Z,18.94
2022-08-05T02:01:13.526Z,18.94
2022-08-05T02:02:13.146Z,18.91
2022-08-05T02:03:24.561Z,18.92
2022-08-05T02:04:14.104Z,18.90
2022-08-05T02:05:13.152Z,18.90
2022-08-05T02:06:33.661Z,18.87
2022-08-05T02:07:22.194Z,18.86
2022-08-05T02:08:13.997Z,18.84
2022-08-05T02:09:14.659Z,18.84
2022-08-05T02:10:17.520Z,18.83
2022-08-05T02:11:12.962Z,18.82
2022-08-05T02:12:12.943Z,18.82
2022-08-05T02:13:16.218Z,18.80
2022-08-05T02:14:13.123Z,18.79
2022-08-05T02:15:12.899Z,18.76
2022-08-05T02:16:16.275Z,18.76
2022-08-05T02:17:16.762Z,18.73
2022-08-05T02:18:33.134Z,18.74
2022-08-05T02:19:13.865Z,18.73
2022-08-05T02:20:12.853Z,18.72
2022-08-05T02:21:14.856Z,18.70
2022-08-05T02:22:12.837Z,18.70
2022-08-05T02:23:13.851Z,18.68
2022-08-05T02:24:12.884Z,18.67
2022-08-05T02:25:13.810Z,18.68
2022-08-05T02:26:13.589Z,18.67
2022-08-05T02:27:12.745Z,18.65
2022-08-05T02:28:12.769Z,18.65
2022-08-05T02:29:21.287Z,18.65
2022-08-05T02:30:13.710Z,18.62
2022-08-05T02:31:14.798Z,18.64
2022-08-05T02:32:12.662Z,18.62
2022-08-05T02:33:13.689Z,18.61
2022-08-05T02:34:13.701Z,18.61
2022-08-05T02:35:14.054Z,18.59
2022-08-05T02:36:13.413Z,18.55
2022-08-05T02:37:12.614Z,18.57
2022-08-05T02:38:13.324Z,18.55
2022-08-05T02:39:14.025Z,18.54
2022-08-05T02:40:13.775Z,18.55
2022-08-05T02:41:17.022Z,18.57
2022-08-05T02:42:25.688Z,18.57
2022-08-05T02:43:13.545Z,18.58
2022-08-05T02:44:13.516Z,18.58
2022-08-05T02:45:12.504Z,18.58
2022-08-05T02:46:12.473Z,18.59
2022-08-05T02:47:12.577Z,18.59
2022-08-05T02:48:13.033Z,18.59
2022-08-05T02:49:12.437Z,18.59
2022-08-05T02:50:12.426Z,18.61
2022-08-05T02:51:12.418Z,18.61
2022-08-05T02:52:25.821Z,18.61
2022-08-05T02:53:19.150Z,18.62
2022-08-05T02:54:34.841Z,18.62
2022-08-05T02:55:13.367Z,18.65
2022-08-05T02:56:15.725Z,18.67
2022-08-05T02:58:10.464Z,18.65
2022-08-05T02:58:13.410Z,18.64
2022-08-05T02:59:12.326Z,18.64
2022-08-05T03:00:12.303Z,18.65
2022-08-05T03:01:12.342Z,18.67
2022-08-05T03:02:12.271Z,18.65
2022-08-05T03:03:12.260Z,18.65
2022-08-05T03:04:14.057Z,18.65
2022-08-05T03:05:12.311Z,18.67
2022-08-05T03:06:55.445Z,18.68
2022-08-05T03:07:17.648Z,18.70
2022-08-05T03:08:13.515Z,18.70
2022-08-05T03:09:12.177Z,18.72
2022-08-05T03:10:13.352Z,18.74
2022-08-05T03:11:54.715Z,18.72
2022-08-05T03:12:13.156Z,18.72
2022-08-05T03:13:16.893Z,18.72
2022-08-05T03:14:13.607Z,18.72
2022-08-05T03:15:12.376Z,18.73
2022-08-05T03:16:12.167Z,18.74
2022-08-05T03:17:12.078Z,18.73
2022-08-05T03:18:12.125Z,18.73
2022-08-05T03:19:20.223Z,18.76
2022-08-05T03:20:13.448Z,18.74
2022-08-05T03:21:12.020Z,18.76
2022-08-05T03:22:16.773Z,18.76
2022-08-05T03:23:13.037Z,18.77
2022-08-05T03:24:12.007Z,18.79
2022-08-05T03:26:03.665Z,18.79
2022-08-05T03:26:31.390Z,18.82
2022-08-05T03:27:12.951Z,18.80
2022-08-05T03:28:11.920Z,18.77
2022-08-05T03:29:12.228Z,18.79
2022-08-05T03:30:12.241Z,18.82
2022-08-05T03:31:11.921Z,18.82
2022-08-05T03:32:12.896Z,18.82
2022-08-05T03:33:11.879Z,18.76
2022-08-05T03:34:11.842Z,18.74
2022-08-05T03:35:11.823Z,18.72
2022-08-05T03:36:12.076Z,18.68
2022-08-05T03:37:11.819Z,18.65
2022-08-05T03:38:11.839Z,18.61
2022-08-05T03:39:12.928Z,18.59
2022-08-05T03:40:12.909Z,18.61
2022-08-05T03:41:12.085Z,18.61
2022-08-05T03:42:12.580Z,18.61
2022-08-05T03:43:58.541Z,18.61
2022-08-05T03:44:12.759Z,18.58
2022-08-05T03:45:22.460Z,18.58
2022-08-05T03:46:12.680Z,18.58
2022-08-05T03:47:13.636Z,18.61
2022-08-05T03:48:11.646Z,18.61
2022-08-05T03:49:11.703Z,18.58
2022-08-05T03:50:11.730Z,18.55
2022-08-05T03:52:48.835Z,18.57
2022-08-05T03:52:49.384Z,18.57
2022-08-05T03:55:33.969Z,18.54
2022-08-05T03:55:54.209Z,18.55
2022-08-05T03:56:04.209Z,18.52
2022-08-05T03:56:18.034Z,18.50
2022-08-05T03:57:34.276Z,18.50
2022-08-05T03:58:12.519Z,18.50
2022-08-05T03:59:11.562Z,18.50
2022-08-05T04:00:11.498Z,18.49
2022-08-05T04:01:13.374Z,18.52
2022-08-05T04:02:14.906Z,18.49
2022-08-05T04:03:26.617Z,18.49
2022-08-05T04:04:12.509Z,18.49
2022-08-05T04:05:11.433Z,18.49
2022-08-05T04:06:11.473Z,18.49
2022-08-05T04:07:11.693Z,18.49
2022-08-05T04:08:14.490Z,18.47
2022-08-05T04:09:12.380Z,18.49
2022-08-05T04:10:11.372Z,18.47
2022-08-05T04:11:12.376Z,18.50
2022-08-05T04:12:23.746Z,18.52
2022-08-05T04:13:12.346Z,18.54
2022-08-05T04:14:11.313Z,18.57
2022-08-05T04:15:15.542Z,18.55
2022-08-05T04:16:11.314Z,18.57
2022-08-05T04:17:11.415Z,18.59
2022-08-05T04:18:22.467Z,18.59
2022-08-05T04:19:12.276Z,18.61
2022-08-05T04:20:11.223Z,18.61
2022-08-05T04:21:11.292Z,18.61
2022-08-05T04:22:12.327Z,18.62
2022-08-05T04:23:12.654Z,18.61
2022-08-05T04:24:18.678Z,18.61
2022-08-05T04:25:12.205Z,18.62
2022-08-05T04:26:11.198Z,18.62
2022-08-05T04:27:11.235Z,18.62
2022-08-05T04:28:12.926Z,18.61
2022-08-05T04:29:11.109Z,18.59
2022-08-05T04:30:11.123Z,18.61
2022-08-05T04:31:11.169Z,18.59
2022-08-05T04:32:11.082Z,18.59
2022-08-05T04:33:11.059Z,18.59
2022-08-05T04:34:31.205Z,18.59
2022-08-05T04:35:17.624Z,18.59
2022-08-05T04:36:16.716Z,18.55
2022-08-05T04:37:12.760Z,18.55
2022-08-05T04:38:11.081Z,18.55
2022-08-05T04:39:10.993Z,18.58
2022-08-05T04:40:11.030Z,18.58
2022-08-05T04:41:10.936Z,18.61
2022-08-05T04:42:11.233Z,18.58
2022-08-05T04:43:16.359Z,18.59
2022-08-05T04:44:11.903Z,18.61
2022-08-05T04:45:10.882Z,18.59
2022-08-05T04:46:11.912Z,18.57
2022-08-05T04:47:12.061Z,18.57
2022-08-05T04:48:16.586Z,18.57
2022-08-05T04:49:14.373Z,18.57
2022-08-05T04:50:11.597Z,18.55
2022-08-05T04:51:11.109Z,18.52
2022-08-05T04:52:10.818Z,18.55
2022-08-05T04:53:10.805Z,18.54
2022-08-05T04:54:12.106Z,18.52
2022-08-05T04:55:15.014Z,18.54
2022-08-05T04:56:32.275Z,18.54
2022-08-05T04:57:11.756Z,18.54
2022-08-05T04:58:12.324Z,18.52
2022-08-05T04:59:21.964Z,18.47
2022-08-05T05:00:11.842Z,18.46
2022-08-05T05:01:10.759Z,18.46
2022-08-05T05:02:41.563Z,18.47
2022-08-05T05:03:12.929Z,18.49
2022-08-05T05:04:11.731Z,18.47
2022-08-05T05:05:26.309Z,18.46
2022-08-05T05:06:38.840Z,18.47
2022-08-05T05:07:11.606Z,18.47
2022-08-05T05:08:14.423Z,18.49
2022-08-05T05:09:14.260Z,18.49
2022-08-05T05:10:11.583Z,18.52
2022-08-05T05:11:10.582Z,18.54
2022-08-05T05:12:10.533Z,18.58
2022-08-05T05:13:10.523Z,18.61
2022-08-05T05:14:10.603Z,18.58
2022-08-05T05:15:11.491Z,18.57
2022-08-05T05:16:11.462Z,18.58
2022-08-05T05:17:10.450Z,18.59
2022-08-05T05:18:10.463Z,18.62
2022-08-05T05:19:19.433Z,18.64
2022-08-05T05:20:11.415Z,18.68
2022-08-05T05:21:10.405Z,18.68
2022-08-05T05:22:24.282Z,18.70
2022-08-05T05:23:19.811Z,18.72
2022-08-05T05:24:11.464Z,18.67
2022-08-05T05:25:16.980Z,18.65
2022-08-05T05:26:11.378Z,18.64
2022-08-05T05:27:10.315Z,18.67
2022-08-05T05:28:10.321Z,18.68
2022-08-05T05:29:14.915Z,18.68
2022-08-05T05:30:15.560Z,18.72
2022-08-05T05:31:11.289Z,18.70
2022-08-05T05:32:12.672Z,18.67
2022-08-05T05:33:17.087Z,18.67
2022-08-05T05:34:11.330Z,18.62
2022-08-05T05:35:10.207Z,18.64
2022-08-05T05:36:11.277Z,18.64
2022-08-05T05:37:10.204Z,18.62
2022-08-05T05:38:13.829Z,18.64
2022-08-05T05:39:11.053Z,18.65
2022-08-05T05:40:10.153Z,18.68
2022-08-05T05:41:10.152Z,18.72
2022-08-05T05:42:10.131Z,18.74
2022-08-05T05:43:10.199Z,18.74
2022-08-05T05:44:35.817Z,18.72
2022-08-05T05:45:11.122Z,18.72
2022-08-05T05:46:17.675Z,18.67
2022-08-05T05:47:21.310Z,18.68
2022-08-05T05:48:11.120Z,18.70
2022-08-05T05:49:13.546Z,18.79
2022-08-05T05:50:11.054Z,18.84
2022-08-05T05:51:15.518Z,18.90
2022-08-05T05:52:20.203Z,18.94
2022-08-05T05:53:21.903Z,18.99
2022-08-05T05:54:11.554Z,19.08
2022-08-05T05:55:13.566Z,19.14
2022-08-05T05:56:09.926Z,19.25
2022-08-05T05:57:13.601Z,19.38
2022-08-05T05:58:10.946Z,19.47
2022-08-05T05:59:09.967Z,19.47
2022-08-05T06:00:10.194Z,19.48
2022-08-05T06:01:12.850Z,19.53
2022-08-05T06:02:11.117Z,19.60
2022-08-05T06:03:39.994Z,19.60
2022-08-05T06:04:11.821Z,19.58
2022-08-05T06:05:10.444Z,19.54
2022-08-05T06:06:10.811Z,19.46
2022-08-05T06:07:15.148Z,19.43
2022-08-05T06:08:10.774Z,19.35
2022-08-05T06:09:16.779Z,19.38
2022-08-05T06:10:10.771Z,19.42
2022-08-05T06:11:09.761Z,19.42
2022-08-05T06:12:09.839Z,19.43
2022-08-05T06:13:09.730Z,19.46
2022-08-05T06:14:09.807Z,19.47
2022-08-05T06:15:13.547Z,19.54
2022-08-05T06:16:29.706Z,19.65
2022-08-05T06:17:22.372Z,19.76
2022-08-05T06:18:10.645Z,19.93
2022-08-05T06:19:09.651Z,20.13
2022-08-05T06:20:18.715Z,20.43
2022-08-05T06:21:16.542Z,20.64
2022-08-05T06:22:10.585Z,20.51
2022-08-05T06:23:09.593Z,20.46
2022-08-05T06:24:11.535Z,20.49
2022-08-05T06:25:24.598Z,20.49
2022-08-05T06:26:13.646Z,20.53
2022-08-05T06:27:17.333Z,20.34
2022-08-05T06:28:21.198Z,20.31
2022-08-05T06:29:42.965Z,20.35
2022-08-05T06:30:18.157Z,20.34
2022-08-05T06:31:11.253Z,20.34
2022-08-05T06:32:25.565Z,20.27
2022-08-05T06:33:10.750Z,20.21
2022-08-05T06:34:09.456Z,20.02
2022-08-05T06:35:15.448Z,19.97
2022-08-05T06:36:10.488Z,19.88
2022-08-05T06:37:09.437Z,19.83
2022-08-05T06:38:11.864Z,19.83
2022-08-05T06:39:09.494Z,19.78
2022-08-05T06:40:09.446Z,19.69
2022-08-05T06:41:09.419Z,19.69
2022-08-05T06:42:09.393Z,19.73
2022-08-05T06:43:57.781Z,19.76
2022-08-05T06:44:10.346Z,19.78
2022-08-05T06:45:09.590Z,19.79
2022-08-05T06:46:10.345Z,19.79
2022-08-05T06:47:10.173Z,19.83
2022-08-05T06:48:36.080Z,19.84
2022-08-05T06:49:10.236Z,19.86
2022-08-05T06:50:09.265Z,19.86
2022-08-05T06:51:21.786Z,19.84
2022-08-05T06:52:37.946Z,19.79
2022-08-05T06:53:19.553Z,19.79
2022-08-05T06:54:10.185Z,19.79
2022-08-05T06:55:10.263Z,19.73
2022-08-05T06:56:11.663Z,19.70
2022-08-05T06:57:56.649Z,19.68
2022-08-05T06:58:30.085Z,19.69
2022-08-05T06:59:11.903Z,19.65
2022-08-05T07:00:09.708Z,19.57
2022-08-05T07:01:09.177Z,19.47
2022-08-05T07:02:09.079Z,19.43
2022-08-05T07:03:09.759Z,19.43
2022-08-05T07:04:09.049Z,19.40
2022-08-05T07:05:14.327Z,19.38
2022-08-05T07:06:15.121Z,19.38
2022-08-05T07:07:09.017Z,19.39
2022-08-05T07:08:10.872Z,19.36
2022-08-05T07:09:09.017Z,19.28
2022-08-05T07:10:09.034Z,19.28
2022-08-05T07:11:15.224Z,19.23
2022-08-05T07:12:09.920Z,19.23
2022-08-05T07:13:08.915Z,19.21
2022-08-05T07:14:20.669Z,19.24
2022-08-05T07:15:09.950Z,19.28
2022-08-05T07:16:08.910Z,19.24
2022-08-05T07:18:08.755Z,19.13
2022-08-05T07:18:12.492Z,19.15
2022-08-05T07:19:10.901Z,19.11
2022-08-05T07:21:09.877Z,19.15
2022-08-05T07:22:08.870Z,19.17
2022-08-05T07:23:08.785Z,19.20
2022-08-05T07:24:11.171Z,19.20
2022-08-05T07:25:23.621Z,19.20
2022-08-05T07:26:10.455Z,19.17
2022-08-05T07:27:09.044Z,19.17
2022-08-05T07:28:11.778Z,19.14
2022-08-05T07:29:08.706Z,19.15
2022-08-05T07:30:24.186Z,19.18
2022-08-05T07:31:09.694Z,19.20
2022-08-05T07:32:08.709Z,19.25
2022-08-05T07:33:09.206Z,19.24
2022-08-05T07:34:08.659Z,19.24
2022-08-05T07:36:03.941Z,19.23
2022-08-05T07:36:21.182Z,19.18
2022-08-05T07:37:11.584Z,19.17
2022-08-05T07:38:12.261Z,19.15
2022-08-05T07:39:08.584Z,19.11
2022-08-05T07:40:27.051Z,18.99
2022-08-05T07:41:34.958Z,18.97
2022-08-05T07:42:15.255Z,18.97
2022-08-05T07:43:20.190Z,18.92
2022-08-05T07:44:14.513Z,18.91
2022-08-05T07:45:09.694Z,18.87
2022-08-05T07:46:24.398Z,18.90
2022-08-05T07:47:10.133Z,18.92
2022-08-05T07:48:08.531Z,18.90
2022-08-05T07:49:08.482Z,18.90
2022-08-05T07:50:08.475Z,18.92
2022-08-05T07:51:23.058Z,18.94
2022-08-05T07:52:09.726Z,18.92
2022-08-05T07:53:08.400Z,18.92
2022-08-05T07:54:10.137Z,18.94
2022-08-05T07:55:15.796Z,18.98
2022-08-05T07:56:39.331Z,18.99
2022-08-05T07:57:22.860Z,19.05
2022-08-05T07:58:09.753Z,19.08
2022-08-05T07:59:09.434Z,19.05
2022-08-05T08:00:11.457Z,19.02
2022-08-05T08:01:08.307Z,19.02
2022-08-05T08:02:16.267Z,19.11
2022-08-05T08:03:14.807Z,19.18
2022-08-05T08:04:09.300Z,19.18
2022-08-05T08:05:08.265Z,19.23
2022-08-05T08:06:08.271Z,19.32
2022-08-05T08:07:08.235Z,19.33
2022-08-05T08:08:12.291Z,19.39
2022-08-05T08:09:08.188Z,19.48
2022-08-05T08:10:08.217Z,19.54
2022-08-05T08:11:08.857Z,19.60
2022-08-05T08:12:30.543Z,19.69
2022-08-05T08:13:09.132Z,19.75
2022-08-05T08:14:08.154Z,19.97
2022-08-05T08:15:13.839Z,20.09
2022-08-05T08:16:34.928Z,20.12
2022-08-05T08:17:09.174Z,20.08
2022-08-05T08:18:14.269Z,20.09
2022-08-05T08:19:09.099Z,20.27
2022-08-05T08:20:22.414Z,20.42
2022-08-05T08:21:09.756Z,20.51
2022-08-05T08:22:09.192Z,20.58
2022-08-05T08:24:00.436Z,20.39
2022-08-05T08:24:13.983Z,20.06
2022-08-05T08:25:15.663Z,19.86
2022-08-05T08:26:08.959Z,19.84
2022-08-05T08:27:09.898Z,19.84
2022-08-05T08:28:18.520Z,19.90
2022-08-05T08:29:45.155Z,20.02
2022-08-05T08:30:29.522Z,20.05
2022-08-05T08:31:09.001Z,19.90
2022-08-05T08:32:07.882Z,19.86
2022-08-05T08:33:13.738Z,19.86
2022-08-05T08:34:07.861Z,19.94
2022-08-05T08:35:07.868Z,20.09
2022-08-05T08:37:08.829Z,20.16
2022-08-05T08:38:07.903Z,20.09
2022-08-05T08:39:15.598Z,19.97
2022-08-05T08:40:08.798Z,19.78
2022-08-05T08:41:07.823Z,19.83
2022-08-05T08:42:22.489Z,19.94
2022-08-05T08:45:01.571Z,20.03
2022-08-05T08:45:23.521Z,20.24
2022-08-05T08:45:24.265Z,20.10
2022-08-05T08:46:09.805Z,20.33
2022-08-05T08:47:22.295Z,20.41
2022-08-05T08:48:22.264Z,20.51
2022-08-05T08:50:23.139Z,20.59
2022-08-05T08:50:31.618Z,20.65
2022-08-05T08:52:02.400Z,20.61
2022-08-05T08:52:13.735Z,20.35
2022-08-05T08:53:12.381Z,20.13
2022-08-05T08:54:07.598Z,20.06
2022-08-05T08:55:13.198Z,19.97
2022-08-05T08:56:08.581Z,19.90
2022-08-05T08:57:11.420Z,19.90
2022-08-05T08:58:07.538Z,19.90
2022-08-05T08:59:17.485Z,19.94
2022-08-05T09:00:08.521Z,20.10
2022-08-05T09:01:07.628Z,20.05
2022-08-05T09:02:08.618Z,20.10
2022-08-05T09:03:07.475Z,20.33
2022-08-05T09:04:07.571Z,20.49
2022-08-05T09:05:17.766Z,20.72
2022-08-05T09:06:11.082Z,21.02
2022-08-05T09:07:10.661Z,21.21
2022-08-05T09:08:09.823Z,21.04
2022-08-05T09:09:07.519Z,21.08
2022-08-05T09:10:07.482Z,21.04
2022-08-05T09:11:07.513Z,20.91
2022-08-05T09:12:20.192Z,20.74
2022-08-05T09:13:08.430Z,20.65
2022-08-05T09:14:54.111Z,20.79
2022-08-05T09:15:08.320Z,20.86
2022-08-05T09:16:07.381Z,21.05
2022-08-05T09:17:09.455Z,20.90
2022-08-05T09:18:08.659Z,20.90
2022-08-05T09:19:07.303Z,20.96
2022-08-05T09:20:08.427Z,20.99
2022-08-05T09:21:11.544Z,21.04
2022-08-05T09:22:18.387Z,21.24
2022-08-05T09:23:09.597Z,21.46
2022-08-05T09:24:07.223Z,21.66
2022-08-05T09:25:14.091Z,21.78
2022-08-05T09:26:09.420Z,21.79
2022-08-05T09:27:07.178Z,21.79
2022-08-05T09:28:07.367Z,21.88
2022-08-05T09:29:08.874Z,21.97
2022-08-05T09:30:07.247Z,22.10
2022-08-05T09:31:43.846Z,22.13
2022-08-05T09:32:41.353Z,22.14
2022-08-05T09:33:08.130Z,21.95
2022-08-05T09:34:09.759Z,21.72
2022-08-05T09:35:07.088Z,21.42
2022-08-05T09:36:11.799Z,21.19
2022-08-05T09:37:15.176Z,20.98
2022-08-05T09:38:12.210Z,20.77
2022-08-05T09:39:18.108Z,20.31
2022-08-05T09:40:08.049Z,20.20
2022-08-05T09:41:06.992Z,20.13
2022-08-05T09:42:06.980Z,20.10
2022-08-05T09:43:08.492Z,20.12
2022-08-05T09:44:06.925Z,20.12
2022-08-05T09:45:17.597Z,20.24
2022-08-05T09:46:08.793Z,20.20
2022-08-05T09:47:12.406Z,20.23
2022-08-05T09:48:08.102Z,20.09
2022-08-05T09:49:19.094Z,20.13
2022-08-05T09:50:08.313Z,20.24
2022-08-05T09:51:15.107Z,20.24
2022-08-05T09:52:07.972Z,20.33
2022-08-05T09:53:06.825Z,20.51
2022-08-05T09:54:06.881Z,20.53
2022-08-05T09:55:57.944Z,20.54
2022-08-05T09:56:12.851Z,20.62
2022-08-05T09:57:20.584Z,20.66
2022-08-05T09:58:07.777Z,20.59
2022-08-05T09:59:06.727Z,20.34
2022-08-05T10:00:08.251Z,20.28
2022-08-05T10:01:13.324Z,20.23
2022-08-05T10:02:07.740Z,20.30
2022-08-05T10:03:06.727Z,20.41
2022-08-05T10:04:10.303Z,20.38
2022-08-05T10:05:07.972Z,20.31
2022-08-05T10:06:14.761Z,20.38
2022-08-05T10:07:19.840Z,20.30
2022-08-05T10:08:10.756Z,20.23
2022-08-05T10:09:07.751Z,20.00
2022-08-05T10:10:14.913Z,19.97
2022-08-05T10:11:07.610Z,19.98
2022-08-05T10:12:07.618Z,20.05
2022-08-05T10:13:09.832Z,20.16
2022-08-05T10:14:06.562Z,20.27
2022-08-05T10:15:06.574Z,20.24
2022-08-05T10:16:06.567Z,20.25
2022-08-05T10:17:07.281Z,20.27
2022-08-05T10:18:07.640Z,20.20
2022-08-05T10:19:08.451Z,20.16
2022-08-05T10:20:10.990Z,20.06
2022-08-05T10:21:11.899Z,19.97
2022-08-05T10:22:07.501Z,20.08
2022-08-05T10:23:08.902Z,20.18
2022-08-05T10:24:10.995Z,20.25
2022-08-05T10:25:06.468Z,20.33
2022-08-05T10:26:07.062Z,20.25
2022-08-05T10:27:07.567Z,20.23
2022-08-05T10:28:13.422Z,20.28
2022-08-05T10:29:08.178Z,20.34
2022-08-05T10:31:20.880Z,20.31
2022-08-05T10:32:53.221Z,20.28
2022-08-05T10:32:55.080Z,20.28
2022-08-05T10:33:09.437Z,20.27
2022-08-05T10:34:08.078Z,20.33
2022-08-05T10:35:06.339Z,20.31
2022-08-05T10:36:06.239Z,20.20
2022-08-05T10:37:06.312Z,20.10
2022-08-05T10:38:08.471Z,20.09
2022-08-05T10:39:11.776Z,20.00
2022-08-05T10:40:18.382Z,19.95
2022-08-05T10:41:07.219Z,19.90
2022-08-05T10:42:07.725Z,19.87
2022-08-05T10:43:06.383Z,19.87
2022-08-05T10:44:06.263Z,19.87
2022-08-05T10:45:21.399Z,19.88
2022-08-05T10:46:07.273Z,19.94
2022-08-05T10:47:06.121Z,19.98
2022-08-05T10:48:30.159Z,19.95
2022-08-05T10:49:10.141Z,20.00
2022-08-05T10:50:20.568Z,19.93
2022-08-05T10:51:22.164Z,19.91
2022-08-05T10:52:10.318Z,19.90
2022-08-05T10:53:06.039Z,19.87
2022-08-05T10:54:28.282Z,19.87
2022-08-05T10:55:07.188Z,19.86
2022-08-05T10:56:21.103Z,19.83
2022-08-05T10:57:06.977Z,19.76
2022-08-05T10:58:06.008Z,19.79
2022-08-05T10:59:12.142Z,19.84
2022-08-05T11:00:09.114Z,19.90
2022-08-05T11:01:06.911Z,19.93
2022-08-05T11:02:05.974Z,20.02
2022-08-05T11:03:22.780Z,20.08
2022-08-05T11:04:06.924Z,20.06
2022-08-05T11:05:05.863Z,20.06
2022-08-05T11:06:05.862Z,19.98
2022-08-05T11:07:06.403Z,20.02
2022-08-05T11:08:33.786Z,19.98
2022-08-05T11:09:06.800Z,19.86
2022-08-05T11:10:10.289Z,19.84
2022-08-05T11:11:14.598Z,19.88
2022-08-05T11:12:06.933Z,19.88
2022-08-05T11:13:05.827Z,19.86
2022-08-05T11:14:05.738Z,19.78
2022-08-05T11:15:19.489Z,19.72
2022-08-05T11:16:06.766Z,19.69
2022-08-05T11:17:57.696Z,19.63
2022-08-05T11:18:06.772Z,19.68
2022-08-05T11:20:10.369Z,19.78
2022-08-05T11:20:10.613Z,19.83
2022-08-05T11:21:11.576Z,19.83
2022-08-05T11:22:06.689Z,19.76
2022-08-05T11:23:06.154Z,19.80
2022-08-05T11:24:30.119Z,19.86
2022-08-05T11:26:03.200Z,19.97
2022-08-05T11:26:08.826Z,19.94
2022-08-05T11:27:05.588Z,20.08
2022-08-05T11:28:05.573Z,20.13
2022-08-05T11:29:13.069Z,20.18
2022-08-05T11:30:06.557Z,20.16
2022-08-05T11:31:06.514Z,19.95
2022-08-05T11:32:05.762Z,19.72
2022-08-05T11:33:06.637Z,19.60
2022-08-05T11:34:08.136Z,19.55
2022-08-05T11:35:05.482Z,19.48
2022-08-05T11:36:08.635Z,19.40
2022-08-05T11:37:06.135Z,19.38
2022-08-05T11:38:30.136Z,19.28
2022-08-05T11:39:06.487Z,19.21
2022-08-05T11:40:05.433Z,19.17
2022-08-05T11:41:34.293Z,19.08
2022-08-05T11:42:06.472Z,19.02
2022-08-05T11:43:05.353Z,18.94
2022-08-05T11:44:08.131Z,18.84
2022-08-05T11:45:14.606Z,18.80
2022-08-05T11:46:15.107Z,18.77
2022-08-05T11:47:14.253Z,18.73
2022-08-05T11:48:06.321Z,18.67
2022-08-05T11:49:06.274Z,18.64
2022-08-05T11:50:05.277Z,18.54
2022-08-05T11:51:06.271Z,18.57
2022-08-05T11:52:08.794Z,18.54
2022-08-05T11:53:06.267Z,18.52
2022-08-05T11:54:05.281Z,18.42
2022-08-05T11:55:07.032Z,18.29
2022-08-05T11:56:05.228Z,18.17
2022-08-05T11:57:08.418Z,18.17
2022-08-05T11:58:09.265Z,18.21
2022-08-05T11:59:13.719Z,18.27
2022-08-05T12:00:06.210Z,18.06
2022-08-05T12:01:08.516Z,17.99
2022-08-05T12:02:06.130Z,17.94
2022-08-05T12:03:06.153Z,18.00
2022-08-05T12:04:05.103Z,17.91
2022-08-05T12:05:06.871Z,17.89
2022-08-05T12:06:05.774Z,17.97
2022-08-05T12:07:06.041Z,17.92
2022-08-05T12:08:10.877Z,17.95
2022-08-05T12:09:06.043Z,17.94
2022-08-05T12:10:09.651Z,18.00
2022-08-05T12:11:07.093Z,17.88
2022-08-05T12:12:05.116Z,17.81
2022-08-05T12:13:16.890Z,17.85
2022-08-05T12:14:06.134Z,17.91
2022-08-05T12:15:04.979Z,18.03
2022-08-05T12:16:14.998Z,18.18
2022-08-05T12:17:14.569Z,18.28
2022-08-05T12:18:11.114Z,18.34
2022-08-05T12:19:05.937Z,18.54
2022-08-05T12:20:25.398Z,18.67
2022-08-05T12:21:05.866Z,18.82
2022-08-05T12:22:04.849Z,18.87
2022-08-05T12:23:04.889Z,19.05
2022-08-05T12:24:06.859Z,19.21
2022-08-05T12:25:04.827Z,19.28
2022-08-05T12:26:04.814Z,18.99
2022-08-05T12:27:09.978Z,19.06
2022-08-05T12:28:05.786Z,19.02
2022-08-05T12:29:04.750Z,19.06
2022-08-05T12:30:04.745Z,19.10
2022-08-05T12:31:04.827Z,18.97
2022-08-05T12:32:04.956Z,19.18
2022-08-05T12:33:07.120Z,19.32
2022-08-05T12:34:05.701Z,19.46
2022-08-05T12:35:04.678Z,19.51
2022-08-05T12:36:07.039Z,19.43
2022-08-05T12:37:04.685Z,19.38
2022-08-05T12:38:04.638Z,19.35
2022-08-05T12:39:05.635Z,19.32
2022-08-05T12:40:10.965Z,19.08
2022-08-05T12:41:09.677Z,18.80
2022-08-05T12:42:05.588Z,18.74
2022-08-05T12:43:04.586Z,18.74
2022-08-05T12:44:04.574Z,18.74
2022-08-05T12:45:04.584Z,18.70
2022-08-05T12:46:05.585Z,18.61
2022-08-05T12:47:04.517Z,18.62
2022-08-05T12:48:17.498Z,18.64
2022-08-05T12:49:12.888Z,18.72
2022-08-05T12:50:07.231Z,18.82
2022-08-05T12:51:04.483Z,18.68
2022-08-05T12:52:10.581Z,18.57
2022-08-05T12:53:06.959Z,18.52
2022-08-05T12:54:04.488Z,18.52